createdAt,value
2019-01-16T00:00:55.620Z,6.50
2019-01-16T00:03:55.955Z,6.60
2019-01-16T00:06:42.456Z,6.60
2019-01-16T00:09:33.539Z,6.60
2019-01-16T00:12:10.501Z,6.60
2019-01-16T00:14:56.617Z,6.60
2019-01-16T00:17:35.333Z,6.50
2019-01-16T00:20:18.160Z,6.60
2019-01-16T00:23:05.196Z,6.60
2019-01-16T00:25:54.524Z,6.50
2019-01-16T00:28:42.508Z,6.50
2019-01-16T00:31:28.950Z,6.50
2019-01-16T00:34:05.439Z,6.50
2019-01-16T00:37:02.627Z,6.50
2019-01-16T00:39:43.562Z,6.50
2019-01-16T00:42:30.394Z,6.60
2019-01-16T00:45:10.928Z,6.50
2019-01-16T00:47:57.778Z,6.50
2019-01-16T00:50:49.092Z,6.60
2019-01-16T00:53:35.108Z,6.60
2019-01-16T00:56:22.003Z,6.60
2019-01-16T00:59:08.018Z,6.60
2019-01-16T01:01:58.352Z,6.60
2019-01-16T01:04:45.300Z,6.60
2019-01-16T01:07:39.447Z,6.60
2019-01-16T01:10:18.719Z,6.70
2019-01-16T01:13:07.263Z,6.70
2019-01-16T01:15:50.884Z,6.70
2019-01-16T01:18:40.727Z,6.70
2019-01-16T01:21:22.796Z,6.70
2019-01-16T01:24:05.295Z,6.80
2019-01-16T01:26:52.248Z,6.80
2019-01-16T01:29:38.944Z,6.80
2019-01-16T01:32:29.736Z,6.80
2019-01-16T01:35:16.363Z,6.80
2019-01-16T01:38:03.353Z,6.80
2019-01-16T01:41:06.745Z,6.80
2019-01-16T01:43:55.175Z,6.80
2019-01-16T01:46:45.984Z,6.80
2019-01-16T01:49:39.983Z,6.80
2019-01-16T01:52:26.391Z,6.70
2019-01-16T01:55:12.613Z,6.80
2019-01-16T01:57:58.997Z,6.70
2019-01-16T02:00:51.386Z,6.70
2019-01-16T02:03:32.610Z,6.70
2019-01-16T02:06:26.492Z,6.70
2019-01-16T02:09:16.672Z,6.70
2019-01-16T02:12:04.687Z,6.70
2019-01-16T02:15:02.176Z,6.70
2019-01-16T02:17:40.861Z,6.70
2019-01-16T02:20:23.804Z,6.70
2019-01-16T02:23:10.749Z,6.70
2019-01-16T02:25:57.587Z,6.70
2019-01-16T02:28:48.632Z,6.70
2019-01-16T02:31:35.656Z,6.70
2019-01-16T02:34:22.292Z,6.70
2019-01-16T02:37:10.378Z,6.70
2019-01-16T02:39:56.768Z,6.60
2019-01-16T02:42:37.178Z,6.60
2019-01-16T02:45:25.312Z,6.70
2019-01-16T02:48:14.780Z,6.60
2019-01-16T02:51:08.571Z,6.60
2019-01-16T02:53:48.508Z,6.60
2019-01-16T02:56:42.527Z,6.60
2019-01-16T02:59:36.993Z,6.60
2019-01-16T03:02:16.092Z,6.60
2019-01-16T03:05:03.077Z,6.60
2019-01-16T03:07:57.403Z,6.60
2019-01-16T03:10:45.560Z,6.60
2019-01-16T03:13:38.387Z,6.60
2019-01-16T03:16:25.268Z,6.60
2019-01-16T03:19:12.163Z,6.60
2019-01-16T03:21:59.224Z,6.60
2019-01-16T03:24:36.706Z,6.60
2019-01-16T03:27:16.421Z,6.60
2019-01-16T03:30:07.478Z,6.60
2019-01-16T03:32:44.771Z,6.50
2019-01-16T03:35:27.669Z,6.60
2019-01-16T03:38:33.815Z,6.60
2019-01-16T03:41:30.771Z,6.50
2019-01-16T03:44:27.739Z,6.60
2019-01-16T03:47:14.481Z,6.50
2019-01-16T03:50:00.275Z,6.50
2019-01-16T03:52:46.840Z,6.60
2019-01-16T03:55:30.287Z,6.60
2019-01-16T03:58:10.923Z,6.50
2019-01-16T04:01:07.996Z,6.50
2019-01-16T04:03:54.538Z,6.50
2019-01-16T04:06:45.713Z,6.50
2019-01-16T04:09:36.483Z,6.50
2019-01-16T04:12:42.473Z,6.50
2019-01-16T04:15:30.549Z,6.50
2019-01-16T04:18:24.112Z,6.50
2019-01-16T04:21:01.464Z,6.50
2019-01-16T04:23:58.306Z,6.50
2019-01-16T04:26:58.469Z,6.50
2019-01-16T04:29:49.741Z,6.50
2019-01-16T04:32:43.700Z,6.50
2019-01-16T04:35:30.664Z,6.50
2019-01-16T04:38:21.772Z,6.50
2019-01-16T04:41:24.729Z,6.50
2019-01-16T04:44:06.345Z,6.40
2019-01-16T04:47:03.282Z,6.50
2019-01-16T04:49:42.732Z,6.40
2019-01-16T04:52:22.492Z,6.40
2019-01-16T04:55:08.860Z,6.40
2019-01-16T04:57:55.187Z,6.40
2019-01-16T05:00:54.959Z,6.40
2019-01-16T05:03:58.403Z,6.40
2019-01-16T05:06:46.488Z,6.40
2019-01-16T05:09:29.288Z,6.40
2019-01-16T05:12:35.368Z,6.40
2019-01-16T05:15:12.208Z,6.40
2019-01-16T05:17:57.508Z,6.40
2019-01-16T05:20:48.436Z,6.40
2019-01-16T05:23:35.316Z,6.40
2019-01-16T05:26:18.357Z,6.40
2019-01-16T05:29:21.257Z,6.30
2019-01-16T05:32:11.923Z,6.30
2019-01-16T05:35:04.972Z,6.40
2019-01-16T05:38:01.916Z,6.30
2019-01-16T05:40:48.560Z,6.30
2019-01-16T05:43:39.486Z,6.30
2019-01-16T05:46:23.270Z,6.30
2019-01-16T05:48:59.675Z,6.30
2019-01-16T05:51:57.809Z,6.30
2019-01-16T05:55:01.040Z,6.30
2019-01-16T05:57:47.871Z,6.30
2019-01-16T06:00:41.760Z,6.30
2019-01-16T06:03:41.865Z,6.30
2019-01-16T06:06:28.738Z,6.30
2019-01-16T06:09:21.948Z,6.30
2019-01-16T06:12:09.031Z,6.30
2019-01-16T06:14:57.157Z,6.30
2019-01-16T06:17:38.551Z,6.30
2019-01-16T06:20:38.311Z,6.30
2019-01-16T06:23:28.005Z,6.30
2019-01-16T06:26:14.541Z,6.30
2019-01-16T06:29:02.714Z,6.30
2019-01-16T06:31:49.855Z,6.30
2019-01-16T06:34:43.926Z,6.30
2019-01-16T06:37:44.596Z,6.30
2019-01-16T06:40:32.800Z,6.20
2019-01-16T06:43:36.276Z,6.20
2019-01-16T06:46:15.076Z,6.20
2019-01-16T06:49:01.637Z,6.20
2019-01-16T06:51:37.779Z,6.20
2019-01-16T06:54:31.023Z,6.20
2019-01-16T06:57:12.385Z,6.20
2019-01-16T07:00:00.540Z,6.20
2019-01-16T07:02:47.671Z,6.20
2019-01-16T07:05:27.469Z,6.10
2019-01-16T07:08:16.048Z,6.10
2019-01-16T07:10:55.060Z,6.10
2019-01-16T07:13:34.780Z,6.10
2019-01-16T07:16:25.804Z,6.10
2019-01-16T07:19:10.720Z,6.10
2019-01-16T07:22:00.562Z,6.00
2019-01-16T07:25:00.236Z,6.00
2019-01-16T07:27:47.289Z,6.10
2019-01-16T07:30:42.240Z,6.00
2019-01-16T07:33:30.773Z,6.00
2019-01-16T07:36:14.083Z,6.00
2019-01-16T07:39:20.096Z,6.00
2019-01-16T07:42:07.080Z,6.00
2019-01-16T07:44:55.151Z,6.00
2019-01-16T07:47:37.017Z,6.00
2019-01-16T07:50:35.491Z,6.00
2019-01-16T07:53:33.676Z,6.00
2019-01-16T07:56:27.806Z,6.00
2019-01-16T07:59:31.349Z,6.00
2019-01-16T08:02:28.701Z,6.00
2019-01-16T08:05:14.660Z,6.00
2019-01-16T08:07:57.469Z,6.00
2019-01-16T08:10:48.732Z,6.00
2019-01-16T08:13:45.778Z,6.00
2019-01-16T08:16:32.765Z,6.00
2019-01-16T08:19:19.423Z,6.00
2019-01-16T08:22:06.101Z,6.00
2019-01-16T08:24:53.202Z,6.00
2019-01-16T08:27:35.969Z,6.00
2019-01-16T08:30:17.155Z,6.00
2019-01-16T08:33:17.320Z,6.00
2019-01-16T08:36:11.676Z,6.10
2019-01-16T08:38:59.760Z,6.00
2019-01-16T08:41:50.425Z,6.10
2019-01-16T08:44:50.745Z,6.10
2019-01-16T08:47:47.956Z,6.10
2019-01-16T08:50:34.807Z,6.10
2019-01-16T08:53:35.459Z,6.10
2019-01-16T08:56:23.116Z,6.10
2019-01-16T08:59:02.052Z,6.10
2019-01-16T09:01:45.368Z,6.10
2019-01-16T09:04:51.452Z,6.10
2019-01-16T09:07:47.332Z,6.10
2019-01-16T09:10:33.808Z,6.10
2019-01-16T09:13:22.104Z,6.10
2019-01-16T09:16:22.085Z,6.10
2019-01-16T09:19:12.637Z,6.10
2019-01-16T09:21:59.504Z,6.10
2019-01-16T09:24:46.300Z,6.20
2019-01-16T09:27:40.622Z,6.20
2019-01-16T09:30:25.400Z,6.20
2019-01-16T09:33:12.366Z,6.20
2019-01-16T09:35:58.825Z,6.20
2019-01-16T09:38:42.581Z,6.20
2019-01-16T09:41:29.594Z,6.20
2019-01-16T09:44:16.093Z,6.20
2019-01-16T09:47:10.041Z,6.20
2019-01-16T09:50:00.992Z,6.20
2019-01-16T09:52:52.649Z,6.30
2019-01-16T09:55:39.228Z,6.30
2019-01-16T09:58:29.406Z,6.30
2019-01-16T10:01:23.515Z,6.30
2019-01-16T10:04:23.656Z,6.30
2019-01-16T10:07:23.904Z,6.30
2019-01-16T10:10:03.709Z,6.30
2019-01-16T10:12:49.080Z,6.30
2019-01-16T10:15:52.075Z,6.40
2019-01-16T10:18:41.720Z,6.40
2019-01-16T10:21:39.167Z,6.40
2019-01-16T10:24:27.168Z,6.40
2019-01-16T10:27:21.108Z,6.50
2019-01-16T10:30:08.764Z,6.50
2019-01-16T10:32:55.780Z,6.60
2019-01-16T10:35:43.908Z,6.60
2019-01-16T10:38:32.257Z,6.60
2019-01-16T10:41:19.101Z,6.70
2019-01-16T10:44:14.776Z,6.70
2019-01-16T10:47:01.695Z,6.70
2019-01-16T10:49:49.787Z,6.70
2019-01-16T10:52:34.357Z,6.70
2019-01-16T10:55:14.833Z,6.70
2019-01-16T10:57:53.851Z,6.80
2019-01-16T11:00:44.943Z,6.70
2019-01-16T11:03:42.072Z,6.80
2019-01-16T11:06:30.175Z,6.90
2019-01-16T11:09:14.551Z,7.00
2019-01-16T11:12:02.805Z,7.00
2019-01-16T11:14:55.584Z,7.00
2019-01-16T11:17:38.741Z,7.00
2019-01-16T11:20:40.850Z,7.10
2019-01-16T11:23:35.228Z,7.10
2019-01-16T11:26:23.320Z,7.00
2019-01-16T11:29:10.152Z,7.00
2019-01-16T11:32:07.307Z,6.90
2019-01-16T11:34:47.673Z,6.80
2019-01-16T11:37:44.215Z,6.80
2019-01-16T11:40:30.229Z,6.80
2019-01-16T11:43:21.325Z,6.70
2019-01-16T11:46:27.809Z,6.70
2019-01-16T11:49:31.072Z,6.70
2019-01-16T11:52:19.132Z,6.60
2019-01-16T11:55:19.087Z,6.50
2019-01-16T11:58:06.272Z,6.50
2019-01-16T12:00:47.551Z,6.50
2019-01-16T12:03:35.530Z,6.50
2019-01-16T12:06:26.847Z,6.40
2019-01-16T12:09:14.808Z,6.40
2019-01-16T12:11:57.612Z,6.40
2019-01-16T12:14:57.572Z,6.40
2019-01-16T12:17:48.200Z,6.50
2019-01-16T12:20:31.600Z,6.40
2019-01-16T12:23:13.756Z,6.50
2019-01-16T12:26:08.816Z,6.50
2019-01-16T12:28:55.419Z,6.50
2019-01-16T12:31:41.371Z,6.50
2019-01-16T12:34:41.336Z,6.50
2019-01-16T12:37:20.627Z,6.50
2019-01-16T12:40:14.568Z,6.50
2019-01-16T12:42:51.480Z,6.60
2019-01-16T12:45:37.758Z,6.60
2019-01-16T12:48:26.035Z,6.60
2019-01-16T12:51:17.024Z,6.60
2019-01-16T12:53:57.082Z,6.70
2019-01-16T12:56:47.924Z,6.60
2019-01-16T12:59:37.369Z,6.60
2019-01-16T13:02:24.428Z,6.70
2019-01-16T13:05:24.492Z,6.70
2019-01-16T13:08:11.464Z,6.70
2019-01-16T13:11:08.907Z,6.70
2019-01-16T13:13:59.505Z,6.80
2019-01-16T13:16:46.173Z,6.80
2019-01-16T13:19:29.094Z,6.90
2019-01-16T13:22:20.464Z,6.90
2019-01-16T13:25:01.471Z,6.90
2019-01-16T13:27:48.688Z,6.90
2019-01-16T13:30:36.253Z,6.90
2019-01-16T13:33:24.528Z,6.90
2019-01-16T13:36:13.052Z,6.90
2019-01-16T13:39:13.544Z,7.00
2019-01-16T13:41:56.881Z,7.00
2019-01-16T13:44:47.564Z,7.10
2019-01-16T13:47:35.884Z,7.10
2019-01-16T13:50:42.879Z,7.10
2019-01-16T13:53:39.620Z,7.10
2019-01-16T13:56:29.628Z,7.00
2019-01-16T13:59:16.596Z,7.00
2019-01-16T14:02:07.760Z,6.90
2019-01-16T14:04:54.840Z,6.90
2019-01-16T14:07:52.012Z,6.70
2019-01-16T14:10:32.316Z,6.60
2019-01-16T14:13:19.490Z,6.50
2019-01-16T14:16:25.293Z,6.40
2019-01-16T14:19:13.476Z,6.40
2019-01-16T14:22:09.640Z,6.40
2019-01-16T14:25:05.138Z,6.30
2019-01-16T14:27:57.702Z,6.30
2019-01-16T14:30:38.136Z,6.30
2019-01-16T14:33:29.935Z,6.30
2019-01-16T14:36:20.581Z,6.30
2019-01-16T14:39:17.527Z,6.30
2019-01-16T14:42:00.632Z,6.20
2019-01-16T14:44:37.454Z,6.20
2019-01-16T14:47:25.708Z,6.20
2019-01-16T14:50:12.063Z,6.20
2019-01-16T14:53:02.915Z,6.20
2019-01-16T14:55:44.764Z,6.20
2019-01-16T14:58:24.689Z,6.20
2019-01-16T15:01:27.525Z,6.20
2019-01-16T15:04:15.545Z,6.30
2019-01-16T15:06:54.457Z,6.30
2019-01-16T15:09:42.458Z,6.30
2019-01-16T15:12:30.507Z,6.30
2019-01-16T15:15:27.244Z,6.30
2019-01-16T15:18:21.004Z,6.30
2019-01-16T15:21:18.072Z,6.30
2019-01-16T15:24:03.964Z,6.30
2019-01-16T15:26:54.720Z,6.20
2019-01-16T15:29:40.807Z,6.20
2019-01-16T15:32:27.800Z,6.20
2019-01-16T15:35:24.923Z,6.20
2019-01-16T15:38:26.494Z,6.20
2019-01-16T15:41:13.413Z,6.20
2019-01-16T15:44:00.021Z,6.20
2019-01-16T15:46:40.687Z,6.20
2019-01-16T15:49:37.960Z,6.20
2019-01-16T15:52:16.889Z,6.20
2019-01-16T15:55:00.901Z,6.20
2019-01-16T15:57:37.600Z,6.20
2019-01-16T16:00:26.658Z,6.20
2019-01-16T16:03:07.149Z,6.20
2019-01-16T16:06:07.063Z,6.20
2019-01-16T16:08:57.897Z,6.20
2019-01-16T16:11:51.887Z,6.20
2019-01-16T16:14:34.852Z,6.20
2019-01-16T16:17:21.720Z,6.10
2019-01-16T16:20:08.555Z,6.20
2019-01-16T16:22:55.884Z,6.10
2019-01-16T16:25:41.087Z,6.10
2019-01-16T16:28:28.172Z,6.10
2019-01-16T16:31:19.547Z,6.10
2019-01-16T16:34:05.960Z,6.10
2019-01-16T16:37:06.248Z,6.10
2019-01-16T16:39:57.532Z,6.10
2019-01-16T16:42:50.701Z,6.10
2019-01-16T16:45:38.877Z,6.10
2019-01-16T16:48:34.942Z,6.10
2019-01-16T16:51:31.839Z,6.10
2019-01-16T16:54:21.515Z,6.10
2019-01-16T16:56:58.856Z,6.10
2019-01-16T16:59:47.053Z,6.10
2019-01-16T17:02:33.700Z,6.10
2019-01-16T17:05:21.895Z,6.10
2019-01-16T17:08:09.887Z,6.10
2019-01-16T17:11:01.180Z,6.10
2019-01-16T17:13:49.168Z,6.10
2019-01-16T17:16:45.976Z,6.10
2019-01-16T17:19:32.864Z,6.10
2019-01-16T17:22:32.338Z,6.10
2019-01-16T17:25:26.352Z,6.10
2019-01-16T17:28:14.420Z,6.10
2019-01-16T17:31:09.840Z,6.10
2019-01-16T17:33:54.912Z,6.10
2019-01-16T17:36:35.855Z,6.10
2019-01-16T17:39:19.948Z,6.10
2019-01-16T17:42:13.772Z,6.20
2019-01-16T17:45:07.633Z,6.10
2019-01-16T17:47:54.670Z,6.20
2019-01-16T17:50:36.508Z,6.20
2019-01-16T17:53:27.452Z,6.20
2019-01-16T17:56:15.540Z,6.20
2019-01-16T17:58:56.601Z,6.20
2019-01-16T18:01:44.684Z,6.20
2019-01-16T18:04:28.344Z,6.20
2019-01-16T18:07:12.408Z,6.20
2019-01-16T18:10:15.844Z,6.20
2019-01-16T18:13:02.510Z,6.20
2019-01-16T18:15:53.351Z,6.20
2019-01-16T18:18:44.100Z,6.20
2019-01-16T18:21:47.305Z,6.20
2019-01-16T18:24:37.096Z,6.20
2019-01-16T18:27:28.185Z,6.20
2019-01-16T18:30:16.255Z,6.20
2019-01-16T18:33:07.431Z,6.20
2019-01-16T18:35:44.848Z,6.20
2019-01-16T18:38:39.022Z,6.20
2019-01-16T18:41:30.776Z,6.30
2019-01-16T18:44:19.533Z,6.20
2019-01-16T18:47:16.476Z,6.20
2019-01-16T18:50:03.490Z,6.20
2019-01-16T18:52:59.105Z,6.20
2019-01-16T18:55:47.264Z,6.30
2019-01-16T18:58:38.143Z,6.30
2019-01-16T19:01:41.136Z,6.30
2019-01-16T19:04:28.144Z,6.30
2019-01-16T19:07:12.633Z,6.30
2019-01-16T19:09:52.767Z,6.30
2019-01-16T19:12:39.623Z,6.30
2019-01-16T19:15:16.456Z,6.20
2019-01-16T19:18:10.408Z,6.20
2019-01-16T19:20:57.392Z,6.10
2019-01-16T19:23:44.441Z,6.10
2019-01-16T19:26:34.465Z,6.00
2019-01-16T19:29:21.864Z,5.90
2019-01-16T19:32:08.836Z,5.90
2019-01-16T19:35:02.809Z,5.80
2019-01-16T19:37:42.272Z,5.80
2019-01-16T19:40:33.768Z,5.70
2019-01-16T19:43:29.513Z,5.70
2019-01-16T19:46:13.040Z,5.70
2019-01-16T19:49:05.138Z,5.70
2019-01-16T19:52:02.370Z,5.60
2019-01-16T19:54:49.006Z,5.60
2019-01-16T19:57:37.104Z,5.60
2019-01-16T20:00:28.030Z,5.60
2019-01-16T20:03:27.932Z,5.60
2019-01-16T20:06:25.443Z,5.60
2019-01-16T20:09:10.159Z,5.70
2019-01-16T20:12:06.617Z,5.70
2019-01-16T20:15:02.275Z,5.70
2019-01-16T20:17:59.320Z,5.70
2019-01-16T20:20:56.273Z,5.70
2019-01-16T20:23:59.233Z,5.70
2019-01-16T20:26:47.296Z,5.70
2019-01-16T20:29:35.368Z,5.70
2019-01-16T20:32:31.299Z,5.80
2019-01-16T20:35:17.756Z,5.80
2019-01-16T20:38:06.147Z,5.80
2019-01-16T20:41:06.108Z,5.80
2019-01-16T20:43:54.097Z,5.80
2019-01-16T20:46:48.115Z,5.90
2019-01-16T20:49:44.921Z,5.90
2019-01-16T20:52:38.264Z,5.90
2019-01-16T20:55:17.746Z,5.90
2019-01-16T20:58:11.652Z,5.90
2019-01-16T21:01:12.090Z,5.90
2019-01-16T21:04:12.543Z,5.80
2019-01-16T21:07:11.299Z,5.80
2019-01-16T21:09:59.158Z,5.70
2019-01-16T21:12:46.067Z,5.70
2019-01-16T21:15:41.019Z,5.70
2019-01-16T21:18:29.362Z,5.70
2019-01-16T21:21:16.960Z,5.70
2019-01-16T21:24:06.425Z,5.70
2019-01-16T21:26:53.148Z,5.60
2019-01-16T21:29:41.204Z,5.70
2019-01-16T21:32:38.305Z,5.70
2019-01-16T21:35:44.815Z,5.70
2019-01-16T21:38:26.944Z,5.70
2019-01-16T21:41:13.924Z,5.70
2019-01-16T21:44:05.006Z,5.70
2019-01-16T21:46:51.725Z,5.70
2019-01-16T21:49:49.168Z,5.70
2019-01-16T21:52:49.460Z,5.70
2019-01-16T21:55:46.509Z,5.70
2019-01-16T21:58:30.200Z,5.70
2019-01-16T22:01:20.862Z,5.70
2019-01-16T22:04:08.864Z,5.70
2019-01-16T22:06:56.897Z,5.70
2019-01-16T22:09:47.732Z,5.70
2019-01-16T22:12:41.819Z,5.70
2019-01-16T22:15:35.440Z,5.70
2019-01-16T22:18:38.548Z,5.80
2019-01-16T22:21:19.818Z,5.80
2019-01-16T22:24:10.600Z,5.70
2019-01-16T22:27:01.788Z,5.70
2019-01-16T22:29:48.348Z,5.70
2019-01-16T22:32:35.039Z,5.70
2019-01-16T22:35:28.897Z,5.80
2019-01-16T22:38:15.372Z,5.80
2019-01-16T22:41:02.936Z,5.80
2019-01-16T22:43:49.506Z,5.80
2019-01-16T22:46:47.520Z,5.80
2019-01-16T22:49:47.844Z,5.80
2019-01-16T22:52:41.828Z,5.80
2019-01-16T22:55:28.732Z,5.80
2019-01-16T22:58:22.737Z,5.80
2019-01-16T23:01:25.874Z,5.80
2019-01-16T23:04:12.632Z,5.80
2019-01-16T23:07:00.704Z,5.80
2019-01-16T23:10:06.591Z,5.80
2019-01-16T23:12:57.572Z,5.80
2019-01-16T23:15:49.771Z,5.80
2019-01-16T23:18:40.821Z,5.80
2019-01-16T23:21:31.807Z,5.80
2019-01-16T23:24:09.623Z,5.80
2019-01-16T23:26:57.775Z,5.80
2019-01-16T23:29:50.375Z,5.80
2019-01-16T23:32:41.443Z,5.80
2019-01-16T23:35:20.672Z,5.80
2019-01-16T23:37:57.589Z,5.80
2019-01-16T23:40:45.592Z,5.80
2019-01-16T23:43:45.597Z,5.80
2019-01-16T23:46:48.489Z,5.80
2019-01-16T23:49:27.452Z,5.80
2019-01-16T23:52:09.111Z,5.90
2019-01-16T23:55:05.898Z,5.90
2019-01-16T23:57:42.837Z,5.80
